Archival Weather

Southern Wisconsin Rgnl

Janesville, Wisconsin (KJVL)

Report from: Tuesday, June 6, 2023 1:15 AM CDT
Current time: Tuesday, July 16, 2024 4:01 AM CDT

Current weather – Weather history – Daily summaries
Weather forecast

Temperature18.0°C (64.4°F)
Dew point8.0°C (46.4°F)
Winds Calm
Visibility10 mi. (16.1 km)
Clouds Sky clear
Altimeter30.02 in.Hg (1017 mB)
Relative humidity52 %
Density altitude395 ft. (120 m)
Remarks Fully automated report
Automated weather observing station with precipitation discriminator
Flight conditions Visual Meteorological Conditions
Raw dataKJVL 060615Z AUTO 00000KT 10SM CLR 18/08 A3002 RMK AO2
An error has occurred. This application may no longer respond until reloaded. Reload 🗙